sensor_id;sensor_type;location;lat;lon;timestamp;temperature;humidity
81728;DHT22;71136;52.334;5.326;2023-07-08T00:01:22;21.50;61.40
81728;DHT22;71136;52.334;5.326;2023-07-08T00:03:51;21.50;61.40
81728;DHT22;71136;52.334;5.326;2023-07-08T00:06:26;21.50;61.40
81728;DHT22;71136;52.334;5.326;2023-07-08T00:08:56;21.50;61.50
81728;DHT22;71136;52.334;5.326;2023-07-08T00:11:26;21.40;61.40
81728;DHT22;71136;52.334;5.326;2023-07-08T00:14:00;21.40;61.40
81728;DHT22;71136;52.334;5.326;2023-07-08T00:16:29;21.40;61.50
81728;DHT22;71136;52.334;5.326;2023-07-08T00:19:00;21.40;61.40
81728;DHT22;71136;52.334;5.326;2023-07-08T00:21:31;21.40;61.50
81728;DHT22;71136;52.334;5.326;2023-07-08T00:24:00;21.50;61.50
81728;DHT22;71136;52.334;5.326;2023-07-08T00:26:30;21.40;61.50
81728;DHT22;71136;52.334;5.326;2023-07-08T00:29:03;21.50;61.50
81728;DHT22;71136;52.334;5.326;2023-07-08T00:31:32;21.50;61.50
81728;DHT22;71136;52.334;5.326;2023-07-08T00:34:01;21.40;61.50
81728;DHT22;71136;52.334;5.326;2023-07-08T00:36:31;21.40;61.50
81728;DHT22;71136;52.334;5.326;2023-07-08T00:39:01;21.50;61.50
81728;DHT22;71136;52.334;5.326;2023-07-08T00:41:34;21.40;61.50
81728;DHT22;71136;52.334;5.326;2023-07-08T00:44:08;21.40;61.50
81728;DHT22;71136;52.334;5.326;2023-07-08T00:46:48;21.40;61.50
81728;DHT22;71136;52.334;5.326;2023-07-08T00:49:34;21.50;61.50
81728;DHT22;71136;52.334;5.326;2023-07-08T00:52:23;21.40;61.60
81728;DHT22;71136;52.334;5.326;2023-07-08T00:54:56;21.40;61.50
81728;DHT22;71136;52.334;5.326;2023-07-08T00:57:29;21.40;61.50
81728;DHT22;71136;52.334;5.326;2023-07-08T01:00:05;21.40;61.50
81728;DHT22;71136;52.334;5.326;2023-07-08T01:02:38;21.40;61.50
81728;DHT22;71136;52.334;5.326;2023-07-08T01:05:10;21.40;61.50
81728;DHT22;71136;52.334;5.326;2023-07-08T01:07:42;21.40;61.60
81728;DHT22;71136;52.334;5.326;2023-07-08T01:10:16;21.40;61.50
81728;DHT22;71136;52.334;5.326;2023-07-08T01:12:49;21.40;61.60
81728;DHT22;71136;52.334;5.326;2023-07-08T01:15:25;21.40;61.50
81728;DHT22;71136;52.334;5.326;2023-07-08T01:17:56;21.40;61.60
81728;DHT22;71136;52.334;5.326;2023-07-08T01:20:26;21.40;61.60
81728;DHT22;71136;52.334;5.326;2023-07-08T01:22:58;21.40;61.50
81728;DHT22;71136;52.334;5.326;2023-07-08T01:25:27;21.40;61.50
81728;DHT22;71136;52.334;5.326;2023-07-08T01:27:58;21.40;61.50
81728;DHT22;71136;52.334;5.326;2023-07-08T01:30:29;21.40;61.60
81728;DHT22;71136;52.334;5.326;2023-07-08T01:33:02;21.40;61.40
81728;DHT22;71136;52.334;5.326;2023-07-08T01:35:31;21.40;61.30
81728;DHT22;71136;52.334;5.326;2023-07-08T01:38:05;21.40;61.30
81728;DHT22;71136;52.334;5.326;2023-07-08T01:40:51;21.40;61.40
81728;DHT22;71136;52.334;5.326;2023-07-08T01:43:23;21.40;61.50
81728;DHT22;71136;52.334;5.326;2023-07-08T01:45:54;21.40;61.40
81728;DHT22;71136;52.334;5.326;2023-07-08T01:48:24;21.40;61.40
81728;DHT22;71136;52.334;5.326;2023-07-08T01:50:57;21.40;61.40
81728;DHT22;71136;52.334;5.326;2023-07-08T01:53:33;21.40;61.30
81728;DHT22;71136;52.334;5.326;2023-07-08T01:56:04;21.40;61.30
81728;DHT22;71136;52.334;5.326;2023-07-08T01:58:34;21.40;61.20
81728;DHT22;71136;52.334;5.326;2023-07-08T02:01:05;21.40;61.20
81728;DHT22;71136;52.334;5.326;2023-07-08T02:03:35;21.40;61.20
81728;DHT22;71136;52.334;5.326;2023-07-08T02:06:06;21.40;61.30
81728;DHT22;71136;52.334;5.326;2023-07-08T02:08:38;21.40;61.20
81728;DHT22;71136;52.334;5.326;2023-07-08T02:11:09;21.40;61.20
81728;DHT22;71136;52.334;5.326;2023-07-08T02:13:40;21.40;61.10
81728;DHT22;71136;52.334;5.326;2023-07-08T02:16:09;21.40;61.10
81728;DHT22;71136;52.334;5.326;2023-07-08T02:18:38;21.40;61.00
81728;DHT22;71136;52.334;5.326;2023-07-08T02:21:09;21.40;61.00
81728;DHT22;71136;52.334;5.326;2023-07-08T02:23:46;21.40;61.00
81728;DHT22;71136;52.334;5.326;2023-07-08T02:26:15;21.40;61.00
81728;DHT22;71136;52.334;5.326;2023-07-08T02:28:44;21.40;61.00
81728;DHT22;71136;52.334;5.326;2023-07-08T02:31:15;21.40;60.90
81728;DHT22;71136;52.334;5.326;2023-07-08T02:33:45;21.40;60.90
81728;DHT22;71136;52.334;5.326;2023-07-08T02:36:15;21.40;60.80
81728;DHT22;71136;52.334;5.326;2023-07-08T02:38:48;21.40;60.70
81728;DHT22;71136;52.334;5.326;2023-07-08T02:41:17;21.40;60.80
81728;DHT22;71136;52.334;5.326;2023-07-08T02:43:46;21.40;60.80
81728;DHT22;71136;52.334;5.326;2023-07-08T02:46:15;21.40;60.80
81728;DHT22;71136;52.334;5.326;2023-07-08T02:48:44;21.40;60.80
81728;DHT22;71136;52.334;5.326;2023-07-08T02:51:14;21.40;60.80
81728;DHT22;71136;52.334;5.326;2023-07-08T02:53:43;21.40;60.70
81728;DHT22;71136;52.334;5.326;2023-07-08T02:56:17;21.40;60.60
81728;DHT22;71136;52.334;5.326;2023-07-08T02:58:47;21.40;60.70
81728;DHT22;71136;52.334;5.326;2023-07-08T03:01:16;21.40;60.60
81728;DHT22;71136;52.334;5.326;2023-07-08T03:03:46;21.40;60.70
81728;DHT22;71136;52.334;5.326;2023-07-08T03:06:16;21.40;60.70
81728;DHT22;71136;52.334;5.326;2023-07-08T03:08:45;21.40;60.80
81728;DHT22;71136;52.334;5.326;2023-07-08T03:11:17;21.40;60.70
81728;DHT22;71136;52.334;5.326;2023-07-08T03:13:49;21.40;60.60
81728;DHT22;71136;52.334;5.326;2023-07-08T03:16:18;21.40;60.60
81728;DHT22;71136;52.334;5.326;2023-07-08T03:18:47;21.40;60.60
81728;DHT22;71136;52.334;5.326;2023-07-08T03:21:18;21.40;60.50
81728;DHT22;71136;52.334;5.326;2023-07-08T03:23:48;21.40;60.60
81728;DHT22;71136;52.334;5.326;2023-07-08T03:26:22;21.40;60.60
81728;DHT22;71136;52.334;5.326;2023-07-08T03:28:53;21.40;60.70
81728;DHT22;71136;52.334;5.326;2023-07-08T03:31:24;21.40;60.60
81728;DHT22;71136;52.334;5.326;2023-07-08T03:33:54;21.40;60.50
81728;DHT22;71136;52.334;5.326;2023-07-08T03:36:23;21.40;60.50
81728;DHT22;71136;52.334;5.326;2023-07-08T03:38:54;21.40;60.40
81728;DHT22;71136;52.334;5.326;2023-07-08T03:41:26;21.40;60.50
81728;DHT22;71136;52.334;5.326;2023-07-08T03:43:55;21.40;60.50
81728;DHT22;71136;52.334;5.326;2023-07-08T03:46:26;21.40;60.50
81728;DHT22;71136;52.334;5.326;2023-07-08T03:48:55;21.40;60.50
81728;DHT22;71136;52.334;5.326;2023-07-08T03:51:27;21.40;60.40
81728;DHT22;71136;52.334;5.326;2023-07-08T03:53:57;21.40;60.30
81728;DHT22;71136;52.334;5.326;2023-07-08T03:56:33;21.40;60.20
81728;DHT22;71136;52.334;5.326;2023-07-08T03:59:03;21.40;60.20
81728;DHT22;71136;52.334;5.326;2023-07-08T04:01:32;21.40;60.20
81728;DHT22;71136;52.334;5.326;2023-07-08T04:04:02;21.40;60.30
81728;DHT22;71136;52.334;5.326;2023-07-08T04:06:34;21.40;60.20
81728;DHT22;71136;52.334;5.326;2023-07-08T04:09:04;21.40;60.30
81728;DHT22;71136;52.334;5.326;2023-07-08T04:11:35;21.40;60.30
81728;DHT22;71136;52.334;5.326;2023-07-08T04:14:05;21.40;60.20
81728;DHT22;71136;52.334;5.326;2023-07-08T04:16:47;21.40;60.20
81728;DHT22;71136;52.334;5.326;2023-07-08T07:32:07;21.30;60.70
81728;DHT22;71136;52.334;5.326;2023-07-08T07:34:37;21.40;60.70
81728;DHT22;71136;52.334;5.326;2023-07-08T07:37:11;21.40;60.60
81728;DHT22;71136;52.334;5.326;2023-07-08T07:39:41;21.40;60.70
81728;DHT22;71136;52.334;5.326;2023-07-08T07:42:12;21.40;60.70
81728;DHT22;71136;52.334;5.326;2023-07-08T07:44:42;21.40;60.70
81728;DHT22;71136;52.334;5.326;2023-07-08T07:47:15;21.40;60.70
81728;DHT22;71136;52.334;5.326;2023-07-08T07:49:44;21.40;60.70
81728;DHT22;71136;52.334;5.326;2023-07-08T07:52:14;21.40;60.70
81728;DHT22;71136;52.334;5.326;2023-07-08T07:54:49;21.40;60.70
81728;DHT22;71136;52.334;5.326;2023-07-08T07:57:18;21.40;60.80
81728;DHT22;71136;52.334;5.326;2023-07-08T07:59:47;21.40;60.70
81728;DHT22;71136;52.334;5.326;2023-07-08T08:02:20;21.40;60.80
81728;DHT22;71136;52.334;5.326;2023-07-08T08:04:49;21.40;60.80
81728;DHT22;71136;52.334;5.326;2023-07-08T08:07:18;21.40;60.70
81728;DHT22;71136;52.334;5.326;2023-07-08T08:09:47;21.40;60.70
81728;DHT22;71136;52.334;5.326;2023-07-08T08:12:18;21.40;60.80
81728;DHT22;71136;52.334;5.326;2023-07-08T08:14:48;21.40;60.80
81728;DHT22;71136;52.334;5.326;2023-07-08T08:17:20;21.40;60.80
81728;DHT22;71136;52.334;5.326;2023-07-08T08:19:49;21.40;60.70
81728;DHT22;71136;52.334;5.326;2023-07-08T08:22:19;21.40;60.70
81728;DHT22;71136;52.334;5.326;2023-07-08T08:24:49;21.50;60.80
81728;DHT22;71136;52.334;5.326;2023-07-08T08:27:18;21.40;60.80
81728;DHT22;71136;52.334;5.326;2023-07-08T08:29:47;21.50;60.80
81728;DHT22;71136;52.334;5.326;2023-07-08T08:32:16;21.50;60.70
81728;DHT22;71136;52.334;5.326;2023-07-08T08:34:48;21.50;60.80
81728;DHT22;71136;52.334;5.326;2023-07-08T08:37:17;21.50;60.70
81728;DHT22;71136;52.334;5.326;2023-07-08T08:39:47;21.40;60.70
81728;DHT22;71136;52.334;5.326;2023-07-08T08:42:20;21.50;60.80
81728;DHT22;71136;52.334;5.326;2023-07-08T08:44:52;21.50;60.70
81728;DHT22;71136;52.334;5.326;2023-07-08T08:47:30;21.50;60.80
81728;DHT22;71136;52.334;5.326;2023-07-08T08:50:16;21.50;60.70
81728;DHT22;71136;52.334;5.326;2023-07-08T08:52:50;21.50;60.80
81728;DHT22;71136;52.334;5.326;2023-07-08T08:55:22;21.50;60.70
81728;DHT22;71136;52.334;5.326;2023-07-08T08:58:00;21.50;60.80
81728;DHT22;71136;52.334;5.326;2023-07-08T09:00:42;21.50;60.70
81728;DHT22;71136;52.334;5.326;2023-07-08T09:03:15;21.50;60.80
81728;DHT22;71136;52.334;5.326;2023-07-08T09:05:47;21.50;60.80
81728;DHT22;71136;52.334;5.326;2023-07-08T09:08:26;21.50;60.80
81728;DHT22;71136;52.334;5.326;2023-07-08T09:11:00;21.50;60.80
81728;DHT22;71136;52.334;5.326;2023-07-08T09:13:32;21.50;60.80
81728;DHT22;71136;52.334;5.326;2023-07-08T09:16:06;21.50;60.80
81728;DHT22;71136;52.334;5.326;2023-07-08T09:18:41;21.50;60.80
81728;DHT22;71136;52.334;5.326;2023-07-08T09:21:21;21.50;60.90
81728;DHT22;71136;52.334;5.326;2023-07-08T09:23:55;21.50;60.90
81728;DHT22;71136;52.334;5.326;2023-07-08T09:26:26;21.50;60.90
81728;DHT22;71136;52.334;5.326;2023-07-08T09:28:56;21.50;60.90
81728;DHT22;71136;52.334;5.326;2023-07-08T09:31:28;21.50;60.80
81728;DHT22;71136;52.334;5.326;2023-07-08T09:34:06;21.50;60.90
81728;DHT22;71136;52.334;5.326;2023-07-08T09:36:43;21.50;60.80
81728;DHT22;71136;52.334;5.326;2023-07-08T09:39:14;21.50;60.90
81728;DHT22;71136;52.334;5.326;2023-07-08T09:41:48;21.50;60.90
81728;DHT22;71136;52.334;5.326;2023-07-08T09:44:22;21.50;60.90
81728;DHT22;71136;52.334;5.326;2023-07-08T09:46:52;21.50;60.90
81728;DHT22;71136;52.334;5.326;2023-07-08T09:49:24;21.50;61.00
81728;DHT22;71136;52.334;5.326;2023-07-08T09:51:58;21.50;61.00
81728;DHT22;71136;52.334;5.326;2023-07-08T09:54:28;21.50;61.00
81728;DHT22;71136;52.334;5.326;2023-07-08T09:57:01;21.50;61.00
81728;DHT22;71136;52.334;5.326;2023-07-08T09:59:45;21.60;61.00
81728;DHT22;71136;52.334;5.326;2023-07-08T10:02:28;21.50;61.00
81728;DHT22;71136;52.334;5.326;2023-07-08T10:05:00;21.50;61.10
81728;DHT22;71136;52.334;5.326;2023-07-08T10:07:33;21.50;61.10
81728;DHT22;71136;52.334;5.326;2023-07-08T10:10:08;21.60;61.00
81728;DHT22;71136;52.334;5.326;2023-07-08T10:12:42;21.60;61.10
81728;DHT22;71136;52.334;5.326;2023-07-08T10:15:18;21.50;61.00
81728;DHT22;71136;52.334;5.326;2023-07-08T10:17:51;21.60;61.10
81728;DHT22;71136;52.334;5.326;2023-07-08T10:20:22;21.60;61.10
81728;DHT22;71136;52.334;5.326;2023-07-08T10:23:02;21.60;61.10
81728;DHT22;71136;52.334;5.326;2023-07-08T10:25:41;21.60;61.10
81728;DHT22;71136;52.334;5.326;2023-07-08T10:28:26;21.60;61.10
81728;DHT22;71136;52.334;5.326;2023-07-08T10:31:05;21.60;61.20
81728;DHT22;71136;52.334;5.326;2023-07-08T10:33:53;21.70;61.20
81728;DHT22;71136;52.334;5.326;2023-07-08T10:36:33;21.70;61.20
81728;DHT22;71136;52.334;5.326;2023-07-08T10:42:12;21.70;61.20
81728;DHT22;71136;52.334;5.326;2023-07-08T10:44:53;21.70;61.20
81728;DHT22;71136;52.334;5.326;2023-07-08T10:47:36;21.70;61.20
81728;DHT22;71136;52.334;5.326;2023-07-08T10:50:30;21.70;61.20
81728;DHT22;71136;52.334;5.326;2023-07-08T10:53:13;21.70;61.30
81728;DHT22;71136;52.334;5.326;2023-07-08T10:55:52;21.70;61.20
81728;DHT22;71136;52.334;5.326;2023-07-08T10:58:40;21.70;61.20
81728;DHT22;71136;52.334;5.326;2023-07-08T11:01:21;21.70;61.30
81728;DHT22;71136;52.334;5.326;2023-07-08T11:04:07;21.70;61.20
81728;DHT22;71136;52.334;5.326;2023-07-08T11:06:41;21.70;61.30
81728;DHT22;71136;52.334;5.326;2023-07-08T11:09:17;21.70;61.30
81728;DHT22;71136;52.334;5.326;2023-07-08T11:11:53;21.70;61.20
81728;DHT22;71136;52.334;5.326;2023-07-08T11:14:27;21.70;61.30
81728;DHT22;71136;52.334;5.326;2023-07-08T11:17:07;21.70;61.30
81728;DHT22;71136;52.334;5.326;2023-07-08T11:19:48;21.70;61.40
81728;DHT22;71136;52.334;5.326;2023-07-08T11:22:21;21.70;61.40
81728;DHT22;71136;52.334;5.326;2023-07-08T11:24:54;21.70;61.40
81728;DHT22;71136;52.334;5.326;2023-07-08T11:27:32;21.70;61.40
81728;DHT22;71136;52.334;5.326;2023-07-08T11:30:11;21.70;61.50
81728;DHT22;71136;52.334;5.326;2023-07-08T11:32:45;21.70;61.40
81728;DHT22;71136;52.334;5.326;2023-07-08T11:35:20;21.70;61.50
81728;DHT22;71136;52.334;5.326;2023-07-08T11:37:50;21.70;61.50
81728;DHT22;71136;52.334;5.326;2023-07-08T11:40:23;21.70;61.50
81728;DHT22;71136;52.334;5.326;2023-07-08T11:43:01;21.70;61.50
81728;DHT22;71136;52.334;5.326;2023-07-08T11:45:35;21.70;61.50
81728;DHT22;71136;52.334;5.326;2023-07-08T11:48:13;21.70;61.60
81728;DHT22;71136;52.334;5.326;2023-07-08T11:50:46;21.70;61.60
81728;DHT22;71136;52.334;5.326;2023-07-08T11:53:34;21.70;61.60
81728;DHT22;71136;52.334;5.326;2023-07-08T11:56:20;21.70;61.70
81728;DHT22;71136;52.334;5.326;2023-07-08T11:58:58;21.80;61.70
81728;DHT22;71136;52.334;5.326;2023-07-08T12:01:33;21.80;61.70
81728;DHT22;71136;52.334;5.326;2023-07-08T12:04:28;21.80;61.70
81728;DHT22;71136;52.334;5.326;2023-07-08T12:07:16;21.80;61.70
81728;DHT22;71136;52.334;5.326;2023-07-08T12:09:49;21.80;61.70
81728;DHT22;71136;52.334;5.326;2023-07-08T12:12:23;21.80;61.70
81728;DHT22;71136;52.334;5.326;2023-07-08T12:15:04;21.80;61.70
81728;DHT22;71136;52.334;5.326;2023-07-08T12:17:34;21.80;61.80
81728;DHT22;71136;52.334;5.326;2023-07-08T12:20:07;21.90;61.80
81728;DHT22;71136;52.334;5.326;2023-07-08T12:22:42;21.80;61.80
81728;DHT22;71136;52.334;5.326;2023-07-08T12:25:14;21.90;61.80
81728;DHT22;71136;52.334;5.326;2023-07-08T12:27:46;21.80;61.80
81728;DHT22;71136;52.334;5.326;2023-07-08T12:30:18;21.80;61.80
81728;DHT22;71136;52.334;5.326;2023-07-08T12:32:47;21.90;61.90
81728;DHT22;71136;52.334;5.326;2023-07-08T12:35:22;21.90;61.90
81728;DHT22;71136;52.334;5.326;2023-07-08T12:37:54;21.90;61.80
81728;DHT22;71136;52.334;5.326;2023-07-08T12:40:24;21.90;61.90
81728;DHT22;71136;52.334;5.326;2023-07-08T12:42:54;21.90;61.90
81728;DHT22;71136;52.334;5.326;2023-07-08T12:45:30;21.90;61.90
81728;DHT22;71136;52.334;5.326;2023-07-08T12:48:03;21.90;61.90
81728;DHT22;71136;52.334;5.326;2023-07-08T12:50:34;21.90;61.90
81728;DHT22;71136;52.334;5.326;2023-07-08T12:53:05;21.90;61.90
81728;DHT22;71136;52.334;5.326;2023-07-08T12:55:37;21.90;62.00
81728;DHT22;71136;52.334;5.326;2023-07-08T12:58:09;21.90;62.00
81728;DHT22;71136;52.334;5.326;2023-07-08T13:00:42;21.90;62.00
81728;DHT22;71136;52.334;5.326;2023-07-08T13:03:14;21.90;62.00
81728;DHT22;71136;52.334;5.326;2023-07-08T13:05:44;21.90;62.00
81728;DHT22;71136;52.334;5.326;2023-07-08T13:08:15;21.90;62.00
81728;DHT22;71136;52.334;5.326;2023-07-08T13:10:46;21.90;62.10
81728;DHT22;71136;52.334;5.326;2023-07-08T13:13:20;21.90;62.10
81728;DHT22;71136;52.334;5.326;2023-07-08T13:15:52;21.90;62.10
81728;DHT22;71136;52.334;5.326;2023-07-08T13:18:27;21.90;62.10
81728;DHT22;71136;52.334;5.326;2023-07-08T13:20:58;21.90;62.10
81728;DHT22;71136;52.334;5.326;2023-07-08T13:23:28;21.90;62.10
81728;DHT22;71136;52.334;5.326;2023-07-08T13:26:00;21.90;62.00
81728;DHT22;71136;52.334;5.326;2023-07-08T13:28:36;21.90;62.10
81728;DHT22;71136;52.334;5.326;2023-07-08T13:31:18;21.90;62.10
81728;DHT22;71136;52.334;5.326;2023-07-08T13:33:49;21.90;62.10
81728;DHT22;71136;52.334;5.326;2023-07-08T13:36:31;21.90;62.10
81728;DHT22;71136;52.334;5.326;2023-07-08T13:39:03;21.90;62.10
81728;DHT22;71136;52.334;5.326;2023-07-08T13:41:33;21.90;62.10
81728;DHT22;71136;52.334;5.326;2023-07-08T13:44:07;21.90;62.10
81728;DHT22;71136;52.334;5.326;2023-07-08T13:46:44;21.90;62.10
81728;DHT22;71136;52.334;5.326;2023-07-08T13:49:15;21.90;62.10
81728;DHT22;71136;52.334;5.326;2023-07-08T13:51:44;21.90;62.10
81728;DHT22;71136;52.334;5.326;2023-07-08T13:54:20;21.90;62.10
81728;DHT22;71136;52.334;5.326;2023-07-08T13:56:51;21.90;62.10
81728;DHT22;71136;52.334;5.326;2023-07-08T13:59:23;21.90;62.20
81728;DHT22;71136;52.334;5.326;2023-07-08T14:01:57;21.90;62.20
81728;DHT22;71136;52.334;5.326;2023-07-08T14:04:29;22.00;62.10
81728;DHT22;71136;52.334;5.326;2023-07-08T14:06:59;22.00;62.20
81728;DHT22;71136;52.334;5.326;2023-07-08T14:09:29;22.00;62.20
81728;DHT22;71136;52.334;5.326;2023-07-08T14:11:58;22.00;62.20
81728;DHT22;71136;52.334;5.326;2023-07-08T14:14:27;21.90;62.20
81728;DHT22;71136;52.334;5.326;2023-07-08T14:16:59;22.00;62.20
81728;DHT22;71136;52.334;5.326;2023-07-08T14:19:31;22.00;62.20
81728;DHT22;71136;52.334;5.326;2023-07-08T14:22:16;22.00;62.20
81728;DHT22;71136;52.334;5.326;2023-07-08T14:24:48;22.00;62.20
81728;DHT22;71136;52.334;5.326;2023-07-08T14:27:19;22.00;62.20
81728;DHT22;71136;52.334;5.326;2023-07-08T14:29:50;22.00;62.20
81728;DHT22;71136;52.334;5.326;2023-07-08T14:32:24;22.00;62.20
81728;DHT22;71136;52.334;5.326;2023-07-08T14:34:59;22.00;62.20
81728;DHT22;71136;52.334;5.326;2023-07-08T14:37:29;22.00;62.30
81728;DHT22;71136;52.334;5.326;2023-07-08T14:39:59;22.00;62.30
81728;DHT22;71136;52.334;5.326;2023-07-08T14:42:28;22.00;62.30
81728;DHT22;71136;52.334;5.326;2023-07-08T14:44:58;22.00;62.30
81728;DHT22;71136;52.334;5.326;2023-07-08T14:47:29;22.00;62.40
81728;DHT22;71136;52.334;5.326;2023-07-08T14:50:00;22.00;62.30
81728;DHT22;71136;52.334;5.326;2023-07-08T14:52:39;22.00;62.30
81728;DHT22;71136;52.334;5.326;2023-07-08T14:55:09;22.00;62.30
81728;DHT22;71136;52.334;5.326;2023-07-08T14:57:43;22.00;62.30
81728;DHT22;71136;52.334;5.326;2023-07-08T15:00:16;22.00;62.40
81728;DHT22;71136;52.334;5.326;2023-07-08T15:02:50;22.00;62.30
81728;DHT22;71136;52.334;5.326;2023-07-08T15:05:21;22.00;62.50
81728;DHT22;71136;52.334;5.326;2023-07-08T15:07:52;22.00;62.40
81728;DHT22;71136;52.334;5.326;2023-07-08T15:10:25;22.00;62.30
81728;DHT22;71136;52.334;5.326;2023-07-08T15:12:59;22.10;62.40
81728;DHT22;71136;52.334;5.326;2023-07-08T15:15:31;22.00;62.40
81728;DHT22;71136;52.334;5.326;2023-07-08T15:18:11;22.10;62.50
81728;DHT22;71136;52.334;5.326;2023-07-08T15:20:41;22.00;62.40
81728;DHT22;71136;52.334;5.326;2023-07-08T15:23:11;22.10;62.40
81728;DHT22;71136;52.334;5.326;2023-07-08T15:25:42;22.10;62.40
81728;DHT22;71136;52.334;5.326;2023-07-08T15:28:16;22.10;62.50
81728;DHT22;71136;52.334;5.326;2023-07-08T15:30:49;22.10;62.50
81728;DHT22;71136;52.334;5.326;2023-07-08T15:33:20;22.10;62.50
81728;DHT22;71136;52.334;5.326;2023-07-08T15:35:50;22.10;62.60
81728;DHT22;71136;52.334;5.326;2023-07-08T15:38:19;22.10;62.50
81728;DHT22;71136;52.334;5.326;2023-07-08T15:40:49;22.10;62.50
81728;DHT22;71136;52.334;5.326;2023-07-08T15:43:18;22.10;62.50
81728;DHT22;71136;52.334;5.326;2023-07-08T15:45:48;22.10;62.50
81728;DHT22;71136;52.334;5.326;2023-07-08T15:48:20;22.10;62.50
81728;DHT22;71136;52.334;5.326;2023-07-08T15:50:49;22.10;62.50
81728;DHT22;71136;52.334;5.326;2023-07-08T15:53:19;22.10;62.50
81728;DHT22;71136;52.334;5.326;2023-07-08T15:55:50;22.10;62.60
81728;DHT22;71136;52.334;5.326;2023-07-08T15:58:26;22.10;62.60
81728;DHT22;71136;52.334;5.326;2023-07-08T16:00:58;22.10;62.60
81728;DHT22;71136;52.334;5.326;2023-07-08T16:03:32;22.10;62.60
81728;DHT22;71136;52.334;5.326;2023-07-08T16:06:04;22.10;62.50
81728;DHT22;71136;52.334;5.326;2023-07-08T16:08:33;22.10;62.60
81728;DHT22;71136;52.334;5.326;2023-07-08T16:11:04;22.20;62.60
81728;DHT22;71136;52.334;5.326;2023-07-08T16:13:36;22.10;62.60
81728;DHT22;71136;52.334;5.326;2023-07-08T16:16:06;22.10;62.60
81728;DHT22;71136;52.334;5.326;2023-07-08T16:18:38;22.10;62.60
81728;DHT22;71136;52.334;5.326;2023-07-08T16:21:08;22.10;62.60
81728;DHT22;71136;52.334;5.326;2023-07-08T16:23:39;22.20;62.60
81728;DHT22;71136;52.334;5.326;2023-07-08T16:26:12;22.20;62.70
81728;DHT22;71136;52.334;5.326;2023-07-08T16:28:44;22.20;62.60
81728;DHT22;71136;52.334;5.326;2023-07-08T16:31:17;22.10;62.70
81728;DHT22;71136;52.334;5.326;2023-07-08T16:33:50;22.20;62.70
81728;DHT22;71136;52.334;5.326;2023-07-08T16:36:22;22.20;62.70
81728;DHT22;71136;52.334;5.326;2023-07-08T16:38:52;22.20;62.70
81728;DHT22;71136;52.334;5.326;2023-07-08T16:41:22;22.20;62.70
81728;DHT22;71136;52.334;5.326;2023-07-08T16:43:53;22.20;62.80
81728;DHT22;71136;52.334;5.326;2023-07-08T16:46:23;22.20;62.70
81728;DHT22;71136;52.334;5.326;2023-07-08T16:48:57;22.20;62.70
81728;DHT22;71136;52.334;5.326;2023-07-08T16:51:27;22.20;62.70
81728;DHT22;71136;52.334;5.326;2023-07-08T16:54:01;22.20;62.80
81728;DHT22;71136;52.334;5.326;2023-07-08T16:56:37;22.20;62.80
81728;DHT22;71136;52.334;5.326;2023-07-08T16:59:07;22.20;62.70
81728;DHT22;71136;52.334;5.326;2023-07-08T17:01:36;22.20;62.80
81728;DHT22;71136;52.334;5.326;2023-07-08T17:04:09;22.20;62.80
81728;DHT22;71136;52.334;5.326;2023-07-08T17:06:39;22.20;62.80
81728;DHT22;71136;52.334;5.326;2023-07-08T17:09:10;22.20;62.80
81728;DHT22;71136;52.334;5.326;2023-07-08T17:11:40;22.20;62.80
81728;DHT22;71136;52.334;5.326;2023-07-08T17:14:09;22.20;62.80
81728;DHT22;71136;52.334;5.326;2023-07-08T17:16:42;22.20;62.80
81728;DHT22;71136;52.334;5.326;2023-07-08T17:19:19;22.20;62.80
81728;DHT22;71136;52.334;5.326;2023-07-08T17:21:48;22.20;62.80
81728;DHT22;71136;52.334;5.326;2023-07-08T17:24:19;22.20;62.80
81728;DHT22;71136;52.334;5.326;2023-07-08T17:26:48;22.30;62.90
81728;DHT22;71136;52.334;5.326;2023-07-08T17:29:17;22.30;62.90
81728;DHT22;71136;52.334;5.326;2023-07-08T17:31:47;22.30;63.00
81728;DHT22;71136;52.334;5.326;2023-07-08T17:34:24;22.30;62.90
81728;DHT22;71136;52.334;5.326;2023-07-08T17:36:54;22.30;63.00
81728;DHT22;71136;52.334;5.326;2023-07-08T17:39:24;22.30;63.00
81728;DHT22;71136;52.334;5.326;2023-07-08T17:41:53;22.30;63.00
81728;DHT22;71136;52.334;5.326;2023-07-08T17:44:22;22.30;63.00
81728;DHT22;71136;52.334;5.326;2023-07-08T17:46:51;22.30;63.00
81728;DHT22;71136;52.334;5.326;2023-07-08T17:49:23;22.30;63.10
81728;DHT22;71136;52.334;5.326;2023-07-08T17:51:53;22.30;63.20
81728;DHT22;71136;52.334;5.326;2023-07-08T17:54:22;22.40;63.10
81728;DHT22;71136;52.334;5.326;2023-07-08T17:56:52;22.40;63.20
81728;DHT22;71136;52.334;5.326;2023-07-08T17:59:24;22.40;63.20
81728;DHT22;71136;52.334;5.326;2023-07-08T18:01:54;22.50;63.20
81728;DHT22;71136;52.334;5.326;2023-07-08T18:04:27;22.40;63.20
81728;DHT22;71136;52.334;5.326;2023-07-08T18:06:56;22.40;63.30
81728;DHT22;71136;52.334;5.326;2023-07-08T18:09:25;22.50;63.20
81728;DHT22;71136;52.334;5.326;2023-07-08T18:11:54;22.50;63.30
81728;DHT22;71136;52.334;5.326;2023-07-08T18:14:23;22.50;63.30
81728;DHT22;71136;52.334;5.326;2023-07-08T18:16:54;22.50;63.30
81728;DHT22;71136;52.334;5.326;2023-07-08T18:19:26;22.50;63.30
81728;DHT22;71136;52.334;5.326;2023-07-08T18:21:55;22.50;63.40
81728;DHT22;71136;52.334;5.326;2023-07-08T18:24:25;22.50;63.40
81728;DHT22;71136;52.334;5.326;2023-07-08T18:26:54;22.50;63.40
81728;DHT22;71136;52.334;5.326;2023-07-08T18:29:25;22.50;63.40
81728;DHT22;71136;52.334;5.326;2023-07-08T18:31:54;22.50;63.50
81728;DHT22;71136;52.334;5.326;2023-07-08T18:34:27;22.50;63.50
81728;DHT22;71136;52.334;5.326;2023-07-08T18:36:56;22.50;63.50
81728;DHT22;71136;52.334;5.326;2023-07-08T18:39:27;22.50;63.50
81728;DHT22;71136;52.334;5.326;2023-07-08T18:41:58;22.50;63.50
81728;DHT22;71136;52.334;5.326;2023-07-08T18:44:30;22.50;63.50
81728;DHT22;71136;52.334;5.326;2023-07-08T18:47:02;22.50;63.50
81728;DHT22;71136;52.334;5.326;2023-07-08T18:49:34;22.50;63.50
81728;DHT22;71136;52.334;5.326;2023-07-08T18:52:07;22.50;63.50
81728;DHT22;71136;52.334;5.326;2023-07-08T18:54:38;22.50;63.50
81728;DHT22;71136;52.334;5.326;2023-07-08T18:57:08;22.50;63.50
81728;DHT22;71136;52.334;5.326;2023-07-08T18:59:37;22.50;63.50
81728;DHT22;71136;52.334;5.326;2023-07-08T19:02:30;22.50;63.50
81728;DHT22;71136;52.334;5.326;2023-07-08T19:05:03;22.50;63.60
81728;DHT22;71136;52.334;5.326;2023-07-08T19:07:32;22.50;63.60
81728;DHT22;71136;52.334;5.326;2023-07-08T19:10:02;22.50;63.50
81728;DHT22;71136;52.334;5.326;2023-07-08T19:12:43;22.50;63.60
81728;DHT22;71136;52.334;5.326;2023-07-08T19:15:20;22.50;63.60
81728;DHT22;71136;52.334;5.326;2023-07-08T19:17:50;22.50;63.60
81728;DHT22;71136;52.334;5.326;2023-07-08T19:20:26;22.50;63.50